createdAt,value
2019-05-22T00:01:07.352Z,26.63
2019-05-22T00:03:41.497Z,27.63
2019-05-22T00:06:09.505Z,27.17
2019-05-22T00:08:37.643Z,26.30
2019-05-22T00:11:05.730Z,26.00
2019-05-22T00:13:39.062Z,27.00
2019-05-22T00:16:08.792Z,26.40
2019-05-22T00:18:37.748Z,27.10
2019-05-22T00:21:07.265Z,26.70
2019-05-22T00:23:36.879Z,25.57
2019-05-22T00:26:05.824Z,27.43
2019-05-22T00:28:34.416Z,26.97
2019-05-22T00:31:03.075Z,28.10
2019-05-22T00:33:31.564Z,26.80
2019-05-22T00:36:02.223Z,26.20
2019-05-22T00:38:31.672Z,27.30
2019-05-22T00:41:04.771Z,26.87
2019-05-22T00:43:37.717Z,25.13
2019-05-22T00:46:07.985Z,26.10
2019-05-22T00:48:38.340Z,28.43
2019-05-22T00:51:46.399Z,26.73
2019-05-22T00:54:39.466Z,27.43
2019-05-22T00:57:25.749Z,26.30
2019-05-22T00:59:55.913Z,26.77
2019-05-22T01:02:26.671Z,27.70
2019-05-22T01:04:54.750Z,26.23
2019-05-22T01:07:30.045Z,27.20
2019-05-22T01:09:59.343Z,28.57
2019-05-22T01:12:32.089Z,26.50
2019-05-22T01:15:03.976Z,26.70
2019-05-22T01:17:34.037Z,25.20
2019-05-22T01:20:04.931Z,26.97
2019-05-22T01:22:36.651Z,25.97
2019-05-22T01:25:06.192Z,25.63
2019-05-22T01:27:35.806Z,24.90
2019-05-22T01:30:07.097Z,25.77
2019-05-22T01:32:42.783Z,24.63
2019-05-22T01:35:13.071Z,23.43
2019-05-22T01:37:42.589Z,24.80
2019-05-22T01:40:19.501Z,24.47
2019-05-22T01:42:50.437Z,23.70
2019-05-22T01:45:20.558Z,23.60
2019-05-22T01:47:53.932Z,24.00
2019-05-22T01:50:25.535Z,24.57
2019-05-22T01:52:55.200Z,24.20
2019-05-22T01:55:23.116Z,24.63
2019-05-22T01:57:53.088Z,25.23
2019-05-22T02:00:21.510Z,23.47
2019-05-22T02:02:51.561Z,24.43
2019-05-22T02:05:20.842Z,23.50
2019-05-22T02:07:48.765Z,26.80
2019-05-22T02:10:19.415Z,24.83
2019-05-22T02:12:51.083Z,26.00
2019-05-22T02:15:19.649Z,25.47
2019-05-22T02:17:48.576Z,24.13
2019-05-22T02:20:18.416Z,25.67
2019-05-22T02:22:48.038Z,23.40
2019-05-22T02:25:16.354Z,25.20
2019-05-22T02:27:44.966Z,24.70
2019-05-22T02:30:14.456Z,24.70
2019-05-22T02:32:43.019Z,23.57
2019-05-22T02:35:12.834Z,23.97
2019-05-22T02:37:42.270Z,24.97
2019-05-22T02:40:15.332Z,24.63
2019-05-22T02:42:44.262Z,24.37
2019-05-22T02:45:13.397Z,24.07
2019-05-22T02:47:41.381Z,22.83
2019-05-22T02:50:11.170Z,23.00
2019-05-22T02:52:39.258Z,24.63
2019-05-22T02:55:08.701Z,24.00
2019-05-22T02:57:36.808Z,23.90
2019-05-22T03:00:05.017Z,25.70
2019-05-22T03:02:36.061Z,22.87
2019-05-22T03:05:07.896Z,23.57
2019-05-22T03:07:36.734Z,25.53
2019-05-22T03:10:05.738Z,23.13
2019-05-22T03:12:36.450Z,24.37
2019-05-22T03:15:07.526Z,23.67
2019-05-22T03:17:36.654Z,23.33
2019-05-22T03:20:16.388Z,23.63
2019-05-22T03:23:02.875Z,22.77
2019-05-22T03:25:33.178Z,23.53
2019-05-22T03:28:02.203Z,23.37
2019-05-22T03:30:32.536Z,23.10
2019-05-22T03:33:01.821Z,23.23
2019-05-22T03:35:31.475Z,23.03
2019-05-22T03:38:01.322Z,22.07
2019-05-22T03:40:29.874Z,21.90
2019-05-22T03:42:59.491Z,22.93
2019-05-22T03:45:28.109Z,23.27
2019-05-22T03:47:57.797Z,23.47
2019-05-22T03:50:26.401Z,22.90
2019-05-22T03:52:56.718Z,22.43
2019-05-22T03:55:24.783Z,22.80
2019-05-22T03:57:52.847Z,22.00
2019-05-22T04:00:22.272Z,23.17
2019-05-22T04:02:51.754Z,23.17
2019-05-22T04:05:20.869Z,23.57
2019-05-22T04:07:49.852Z,22.70
2019-05-22T04:10:18.743Z,21.67
2019-05-22T04:12:47.228Z,22.60
2019-05-22T04:15:15.712Z,23.30
2019-05-22T04:17:44.039Z,20.17
2019-05-22T04:20:13.891Z,21.40
2019-05-22T04:22:42.269Z,21.30
2019-05-22T04:25:10.376Z,22.70
2019-05-22T04:27:38.317Z,20.97
2019-05-22T04:30:08.646Z,21.20
2019-05-22T04:32:39.803Z,20.77
2019-05-22T04:35:10.910Z,20.70
2019-05-22T04:37:41.819Z,22.20
2019-05-22T04:40:32.169Z,19.87
2019-05-22T04:43:00.701Z,21.70
2019-05-22T04:45:29.356Z,21.10
2019-05-22T04:48:00.682Z,20.50
2019-05-22T04:50:29.901Z,22.10
2019-05-22T04:52:58.792Z,20.60
2019-05-22T04:55:27.098Z,19.87
2019-05-22T04:57:55.283Z,21.20
2019-05-22T05:00:24.115Z,18.97
2019-05-22T05:02:53.141Z,19.70
2019-05-22T05:05:24.505Z,18.03
2019-05-22T05:07:56.346Z,19.10
2019-05-22T05:10:24.968Z,18.80
2019-05-22T05:12:53.772Z,19.10
2019-05-22T05:15:22.146Z,17.53
2019-05-22T05:17:50.268Z,17.90
2019-05-22T05:20:22.339Z,17.00
2019-05-22T05:22:48.997Z,16.80
2019-05-22T05:25:17.435Z,17.80
2019-05-22T05:27:46.255Z,17.13
2019-05-22T05:30:15.731Z,16.67
2019-05-22T05:32:43.979Z,18.13
2019-05-22T05:35:12.651Z,17.60
2019-05-22T05:37:41.259Z,15.43
2019-05-22T05:40:28.927Z,16.97
2019-05-22T05:42:57.282Z,15.77
2019-05-22T05:45:26.481Z,15.03
2019-05-22T05:47:55.934Z,15.83
2019-05-22T05:50:38.387Z,15.90
2019-05-22T05:52:54.984Z,15.07
2019-05-22T05:55:26.483Z,13.50
2019-05-22T05:58:15.023Z,15.20
2019-05-22T06:03:32.088Z,15.00
2019-05-22T06:06:03.150Z,13.00
2019-05-22T06:08:32.482Z,12.80
2019-05-22T06:11:27.330Z,13.07
2019-05-22T06:13:56.124Z,11.80
2019-05-22T06:16:46.298Z,12.93
2019-05-22T06:19:14.304Z,14.03
2019-05-22T06:21:44.381Z,12.60
2019-05-22T06:24:27.889Z,13.17
2019-05-22T06:27:02.291Z,13.13
2019-05-22T06:29:33.006Z,11.40
2019-05-22T06:32:19.207Z,11.43
2019-05-22T06:34:47.675Z,12.00
2019-05-22T06:37:26.928Z,11.27
2019-05-22T06:39:55.694Z,12.67
2019-05-22T06:42:28.466Z,10.93
2019-05-22T06:44:56.789Z,13.23
2019-05-22T06:47:26.604Z,14.40
2019-05-22T06:49:55.961Z,13.43
2019-05-22T06:52:24.586Z,12.63
2019-05-22T06:54:52.980Z,12.53
2019-05-22T06:57:27.251Z,13.60
2019-05-22T07:00:12.078Z,12.17
2019-05-22T07:02:27.139Z,12.43
2019-05-22T07:04:55.510Z,13.47
2019-05-22T07:07:26.878Z,11.63
2019-05-22T07:09:55.840Z,12.80
2019-05-22T07:12:24.955Z,12.00
2019-05-22T07:15:17.841Z,11.40
2019-05-22T07:17:46.979Z,11.27
2019-05-22T07:20:15.527Z,11.30
2019-05-22T07:22:43.774Z,12.53
2019-05-22T07:25:11.874Z,10.37
2019-05-22T07:27:41.263Z,9.70
2019-05-22T07:30:10.361Z,10.00
2019-05-22T07:32:38.629Z,10.47
2019-05-22T07:35:07.709Z,9.57
2019-05-22T07:37:38.437Z,10.40
2019-05-22T07:40:06.804Z,11.10
2019-05-22T07:42:35.500Z,10.40
2019-05-22T07:45:03.452Z,11.60
2019-05-22T07:47:31.873Z,11.90
2019-05-22T07:49:59.921Z,10.20
2019-05-22T07:52:28.012Z,11.47
2019-05-22T07:54:56.406Z,10.90
2019-05-22T07:57:25.028Z,9.90
2019-05-22T07:59:52.975Z,10.83
2019-05-22T08:02:22.883Z,10.60
2019-05-22T08:04:51.150Z,11.30
2019-05-22T08:07:21.851Z,10.97
2019-05-22T08:09:50.437Z,10.67
2019-05-22T08:12:19.045Z,8.40
2019-05-22T08:14:48.442Z,8.23
2019-05-22T08:17:17.314Z,8.80
2019-05-22T08:19:45.224Z,8.40
2019-05-22T08:22:13.485Z,9.90
2019-05-22T08:24:41.677Z,9.27
2019-05-22T08:27:10.527Z,9.60
2019-05-22T08:29:38.887Z,8.43
2019-05-22T08:32:07.656Z,10.70
2019-05-22T08:34:36.732Z,8.73
2019-05-22T08:37:06.063Z,8.87
2019-05-22T08:39:34.398Z,10.97
2019-05-22T08:42:04.004Z,9.80
2019-05-22T08:44:32.807Z,10.47
2019-05-22T08:47:00.995Z,10.00
2019-05-22T08:49:29.011Z,9.77
2019-05-22T08:51:57.002Z,11.47
2019-05-22T08:54:24.908Z,10.70
2019-05-22T08:56:53.783Z,9.10
2019-05-22T08:59:22.053Z,9.27
2019-05-22T09:01:50.324Z,9.17
2019-05-22T09:04:18.263Z,8.80
2019-05-22T09:06:46.204Z,9.50
2019-05-22T09:09:14.227Z,10.00
2019-05-22T09:11:42.236Z,7.43
2019-05-22T09:14:10.202Z,9.83
2019-05-22T09:16:38.131Z,9.03
2019-05-22T09:19:06.376Z,10.37
2019-05-22T09:21:34.389Z,9.00
2019-05-22T09:24:02.909Z,8.80
2019-05-22T09:26:31.665Z,9.07
2019-05-22T09:28:59.717Z,9.90
2019-05-22T09:31:27.895Z,10.40
2019-05-22T09:33:56.459Z,10.27
2019-05-22T09:36:24.444Z,8.90
2019-05-22T09:38:52.978Z,7.57
2019-05-22T09:41:21.199Z,8.50
2019-05-22T09:43:49.196Z,9.20
2019-05-22T09:46:17.856Z,10.13
2019-05-22T09:48:45.756Z,8.20
2019-05-22T09:51:13.691Z,8.50
2019-05-22T09:53:42.255Z,9.50
2019-05-22T09:56:10.322Z,9.47
2019-05-22T09:58:38.425Z,8.60
2019-05-22T10:01:10.940Z,7.57
2019-05-22T10:03:37.021Z,7.17
2019-05-22T10:06:05.305Z,7.87
2019-05-22T10:08:33.525Z,8.33
2019-05-22T10:11:03.125Z,7.83
2019-05-22T10:13:31.828Z,7.37
2019-05-22T10:16:00.135Z,7.77
2019-05-22T10:18:28.226Z,11.00
2019-05-22T10:20:56.550Z,9.13
2019-05-22T10:23:24.525Z,7.53
2019-05-22T10:25:52.714Z,8.70
2019-05-22T10:28:20.728Z,7.83
2019-05-22T10:30:48.999Z,8.00
2019-05-22T10:33:16.949Z,7.90
2019-05-22T10:35:45.293Z,6.80
2019-05-22T10:38:13.358Z,5.90
2019-05-22T10:40:41.647Z,7.07
2019-05-22T10:43:09.620Z,7.23
2019-05-22T10:45:37.781Z,6.33
2019-05-22T10:48:05.825Z,5.00
2019-05-22T10:50:33.820Z,6.90
2019-05-22T10:53:01.852Z,7.00
2019-05-22T10:55:30.057Z,5.70
2019-05-22T10:57:58.106Z,24.80
2019-05-22T11:00:27.520Z,7.90
2019-05-22T11:02:55.649Z,5.70
2019-05-22T11:05:23.579Z,5.60
2019-05-22T11:07:52.143Z,5.97
2019-05-22T11:10:21.879Z,5.70
2019-05-22T11:12:50.376Z,4.90
2019-05-22T11:15:18.218Z,5.20
2019-05-22T11:17:46.516Z,6.60
2019-05-22T11:20:15.403Z,6.40
2019-05-22T11:22:43.963Z,6.03
2019-05-22T11:25:13.718Z,6.27
2019-05-22T11:27:41.913Z,5.27
2019-05-22T11:30:11.131Z,4.93
2019-05-22T11:32:39.318Z,4.53
2019-05-22T11:35:07.673Z,5.70
2019-05-22T11:37:35.615Z,5.17
2019-05-22T11:40:03.978Z,4.10
2019-05-22T11:42:32.268Z,4.20
2019-05-22T11:45:00.285Z,4.30
2019-05-22T11:47:28.565Z,4.30
2019-05-22T11:49:56.572Z,4.77
2019-05-22T11:52:25.299Z,5.07
2019-05-22T11:54:53.403Z,4.53
2019-05-22T11:57:21.685Z,4.87
2019-05-22T11:59:49.641Z,4.60
2019-05-22T12:02:18.313Z,4.20
2019-05-22T12:04:48.746Z,4.07
2019-05-22T12:07:16.170Z,3.40
2019-05-22T12:09:45.417Z,3.50
2019-05-22T12:12:13.998Z,4.03
2019-05-22T12:14:41.985Z,4.23
2019-05-22T12:17:11.271Z,3.80
2019-05-22T12:19:39.397Z,2.93
2019-05-22T12:22:08.128Z,3.47
2019-05-22T12:24:37.568Z,3.70
2019-05-22T12:27:07.558Z,3.50
2019-05-22T12:29:36.366Z,3.53
2019-05-22T12:32:04.892Z,3.37
2019-05-22T12:34:32.990Z,3.30
2019-05-22T12:37:01.317Z,3.87
2019-05-22T12:39:29.759Z,3.80
2019-05-22T12:41:59.068Z,4.20
2019-05-22T12:44:27.227Z,4.00
2019-05-22T12:46:55.141Z,11.90
2019-05-22T12:49:24.005Z,13.30
2019-05-22T12:51:51.965Z,4.70
2019-05-22T12:54:20.109Z,3.07
2019-05-22T12:56:48.507Z,3.80
2019-05-22T12:59:16.834Z,3.37
2019-05-22T13:01:45.820Z,2.90
2019-05-22T13:04:14.481Z,3.40
2019-05-22T13:06:42.671Z,3.20
2019-05-22T13:09:11.322Z,3.70
2019-05-22T13:11:39.721Z,5.30
2019-05-22T13:14:07.827Z,13.60
2019-05-22T13:16:35.824Z,12.77
2019-05-22T13:19:03.801Z,4.37
2019-05-22T13:21:33.785Z,3.37
2019-05-22T13:24:04.384Z,3.07
2019-05-22T13:26:34.137Z,3.40
2019-05-22T13:29:03.753Z,3.70
2019-05-22T13:31:32.338Z,3.80
2019-05-22T13:34:00.361Z,4.10
2019-05-22T13:36:28.660Z,3.80
2019-05-22T13:38:56.619Z,3.63
2019-05-22T13:41:24.502Z,3.23
2019-05-22T13:43:52.493Z,3.83
2019-05-22T13:46:20.487Z,4.00
2019-05-22T13:48:48.860Z,5.37
2019-05-22T13:51:16.860Z,5.50
2019-05-22T13:53:45.052Z,6.60
2019-05-22T13:56:13.137Z,5.97
2019-05-22T13:58:42.067Z,6.87
2019-05-22T14:01:10.368Z,7.00
2019-05-22T14:03:38.370Z,6.17
2019-05-22T14:06:06.901Z,6.43
2019-05-22T14:08:34.906Z,5.37
2019-05-22T14:11:03.035Z,5.40
2019-05-22T14:13:31.559Z,5.17
2019-05-22T14:15:59.565Z,5.57
2019-05-22T14:18:27.591Z,5.40
2019-05-22T14:20:55.514Z,4.03
2019-05-22T14:23:23.710Z,4.70
2019-05-22T14:25:52.334Z,4.90
2019-05-22T14:28:21.360Z,4.53
2019-05-22T14:30:49.795Z,4.40
2019-05-22T14:33:17.880Z,4.00
2019-05-22T14:35:48.662Z,3.37
2019-05-22T14:38:16.475Z,3.17
2019-05-22T14:40:44.452Z,3.27
2019-05-22T14:43:12.750Z,3.33
2019-05-22T14:45:40.792Z,3.30
2019-05-22T14:48:09.011Z,3.00
2019-05-22T14:50:37.163Z,2.50
2019-05-22T14:53:05.164Z,2.70
2019-05-22T14:55:34.745Z,2.80
2019-05-22T14:58:04.869Z,2.30
2019-05-22T15:00:33.477Z,2.10
2019-05-22T15:03:01.628Z,2.43
2019-05-22T15:05:29.563Z,2.53
2019-05-22T15:07:57.474Z,2.40
2019-05-22T15:10:26.550Z,2.40
2019-05-22T15:12:54.560Z,2.57
2019-05-22T15:15:23.245Z,2.77
2019-05-22T15:17:51.483Z,2.87
2019-05-22T15:20:23.315Z,2.40
2019-05-22T15:22:51.279Z,3.00
2019-05-22T15:25:22.210Z,2.70
2019-05-22T15:27:50.133Z,2.57
2019-05-22T15:30:18.535Z,2.90
2019-05-22T15:32:46.501Z,2.70
2019-05-22T15:35:14.888Z,2.80
2019-05-22T15:37:43.411Z,3.00
2019-05-22T15:40:11.776Z,2.80
2019-05-22T15:42:40.664Z,2.73
2019-05-22T15:45:09.565Z,2.63
2019-05-22T15:47:53.146Z,2.93
2019-05-22T15:50:10.485Z,2.87
2019-05-22T15:52:39.784Z,3.20
2019-05-22T15:55:09.315Z,3.53
2019-05-22T15:57:38.729Z,3.17
2019-05-22T16:00:08.496Z,3.67
2019-05-22T16:02:37.669Z,3.57
2019-05-22T16:05:06.774Z,3.50
2019-05-22T16:07:34.969Z,3.43
2019-05-22T16:10:03.900Z,3.27
2019-05-22T16:12:32.118Z,3.60
2019-05-22T16:15:01.174Z,3.37
2019-05-22T16:17:31.076Z,4.30
2019-05-22T16:19:59.490Z,3.00
2019-05-22T16:22:27.596Z,2.93
2019-05-22T16:24:55.631Z,3.13
2019-05-22T16:27:23.772Z,3.40
2019-05-22T16:29:52.123Z,3.37
2019-05-22T16:32:21.895Z,3.60
2019-05-22T16:34:50.466Z,3.20
2019-05-22T16:37:18.591Z,3.17
2019-05-22T16:39:50.117Z,3.57
2019-05-22T16:42:16.512Z,3.27
2019-05-22T16:44:44.566Z,3.80
2019-05-22T16:47:12.888Z,3.10
2019-05-22T16:49:40.945Z,3.90
2019-05-22T16:52:11.376Z,3.67
2019-05-22T16:54:39.564Z,3.47
2019-05-22T16:57:08.656Z,3.63
2019-05-22T16:59:38.217Z,3.30
2019-05-22T17:02:08.312Z,4.00
2019-05-22T17:04:36.590Z,3.80
2019-05-22T17:07:05.431Z,3.20
2019-05-22T17:09:33.374Z,3.47
2019-05-22T17:12:04.933Z,4.40
2019-05-22T17:14:33.865Z,4.03
2019-05-22T17:17:02.184Z,3.60
2019-05-22T17:19:30.489Z,3.63
2019-05-22T17:21:58.486Z,4.00
2019-05-22T17:24:27.151Z,4.87
2019-05-22T17:26:56.006Z,4.40
2019-05-22T17:29:24.457Z,4.57
2019-05-22T17:31:53.218Z,4.70
2019-05-22T17:34:37.299Z,4.50
2019-05-22T17:37:09.593Z,3.97
2019-05-22T17:39:39.182Z,4.73
2019-05-22T17:42:08.969Z,4.33
2019-05-22T17:44:38.121Z,4.33
2019-05-22T17:47:08.315Z,4.90
2019-05-22T17:49:36.461Z,4.83
2019-05-22T17:52:04.426Z,4.20
2019-05-22T17:54:33.415Z,5.43
2019-05-22T17:57:02.738Z,4.73
2019-05-22T17:59:30.980Z,5.20
2019-05-22T18:01:59.145Z,5.30
2019-05-22T18:04:27.429Z,5.47
2019-05-22T18:06:55.312Z,6.30
2019-05-22T18:09:23.462Z,6.20
2019-05-22T18:11:51.581Z,5.67
2019-05-22T18:14:19.536Z,5.33
2019-05-22T18:16:47.497Z,5.73
2019-05-22T18:19:15.885Z,5.53
2019-05-22T18:21:44.337Z,5.87
2019-05-22T18:24:13.128Z,5.30
2019-05-22T18:26:41.210Z,5.50
2019-05-22T18:29:09.207Z,6.10
2019-05-22T18:31:37.533Z,6.70
2019-05-22T18:34:05.456Z,5.53
2019-05-22T18:36:33.395Z,5.23
2019-05-22T18:39:01.391Z,5.93
2019-05-22T18:41:29.468Z,6.17
2019-05-22T18:43:58.309Z,6.20
2019-05-22T18:46:26.204Z,5.73
2019-05-22T18:48:54.154Z,6.90
2019-05-22T18:51:22.306Z,5.77
2019-05-22T18:53:50.211Z,6.50
2019-05-22T18:56:18.203Z,6.80
2019-05-22T18:58:46.191Z,7.13
2019-05-22T19:01:16.319Z,7.47
2019-05-22T19:03:43.976Z,6.83
2019-05-22T19:06:12.152Z,7.13
2019-05-22T19:08:40.418Z,7.73
2019-05-22T19:11:08.418Z,7.20
2019-05-22T19:13:36.553Z,8.13
2019-05-22T19:16:04.525Z,7.77
2019-05-22T19:18:32.474Z,7.63
2019-05-22T19:21:00.652Z,7.93
2019-05-22T19:23:28.768Z,7.33
2019-05-22T19:25:56.671Z,7.87
2019-05-22T19:28:40.497Z,8.47
2019-05-22T19:30:54.667Z,7.10
2019-05-22T19:33:22.815Z,8.50
2019-05-22T19:35:50.732Z,7.77
2019-05-22T19:38:18.670Z,8.10
2019-05-22T19:40:47.231Z,7.80
2019-05-22T19:43:16.120Z,8.20
2019-05-22T19:45:44.412Z,8.73
2019-05-22T19:48:12.889Z,7.77
2019-05-22T19:50:41.218Z,7.67
2019-05-22T19:53:18.859Z,9.53
2019-05-22T19:55:40.980Z,7.97
2019-05-22T19:58:10.718Z,7.40
2019-05-22T20:00:39.486Z,7.80
2019-05-22T20:03:07.901Z,8.70
2019-05-22T20:05:36.213Z,8.77
2019-05-22T20:08:05.045Z,8.53
2019-05-22T20:10:33.441Z,8.53
2019-05-22T20:13:02.593Z,8.63
2019-05-22T20:15:30.642Z,8.53
2019-05-22T20:17:58.654Z,7.80
2019-05-22T20:20:27.201Z,7.90
2019-05-22T20:22:55.188Z,7.63
2019-05-22T20:25:23.495Z,8.53
2019-05-22T20:27:51.452Z,8.10
2019-05-22T20:30:20.674Z,8.23
2019-05-22T20:32:49.979Z,7.70
2019-05-22T20:35:17.972Z,8.97
2019-05-22T20:37:46.886Z,8.50
2019-05-22T20:40:15.907Z,7.70
2019-05-22T20:42:44.101Z,7.80
2019-05-22T20:45:13.056Z,9.40
2019-05-22T20:47:41.951Z,9.10
2019-05-22T20:50:11.207Z,9.13
2019-05-22T20:52:39.961Z,8.93
2019-05-22T20:55:09.381Z,9.50
2019-05-22T20:57:37.956Z,8.97
2019-05-22T21:00:08.068Z,8.90
2019-05-22T21:02:37.230Z,10.27
2019-05-22T21:05:07.041Z,9.07
2019-05-22T21:07:36.886Z,10.10
2019-05-22T21:10:06.017Z,9.17
2019-05-22T21:12:36.092Z,9.60
2019-05-22T21:15:04.645Z,9.57
2019-05-22T21:17:33.204Z,9.57
2019-05-22T21:20:03.258Z,10.60
2019-05-22T21:22:31.224Z,10.57
2019-05-22T21:24:59.703Z,10.40
2019-05-22T21:27:27.625Z,10.60
2019-05-22T21:29:56.164Z,9.57
2019-05-22T21:32:24.789Z,9.60
2019-05-22T21:34:52.773Z,9.00
2019-05-22T21:37:20.736Z,9.97
2019-05-22T21:39:50.542Z,10.27
2019-05-22T21:42:18.721Z,10.33
2019-05-22T21:44:46.703Z,10.73
2019-05-22T21:47:14.691Z,10.00
2019-05-22T21:49:44.127Z,9.43
2019-05-22T21:52:12.922Z,10.73
2019-05-22T21:54:41.093Z,10.53
2019-05-22T21:57:10.375Z,10.80
2019-05-22T21:59:38.592Z,9.80
2019-05-22T22:02:20.409Z,9.60
2019-05-22T22:04:48.916Z,11.03
2019-05-22T22:07:18.068Z,10.60
2019-05-22T22:09:46.146Z,10.70
2019-05-22T22:12:15.379Z,11.47
2019-05-22T22:14:45.179Z,10.53
2019-05-22T22:17:14.547Z,11.10
2019-05-22T22:19:42.567Z,10.00
2019-05-22T22:22:11.989Z,10.70
2019-05-22T22:24:40.001Z,9.80
2019-05-22T22:27:07.891Z,10.20
2019-05-22T22:29:35.839Z,10.93
2019-05-22T22:32:05.352Z,9.77
2019-05-22T22:34:43.008Z,11.10
2019-05-22T22:37:11.805Z,10.47
2019-05-22T22:39:41.724Z,11.30
2019-05-22T22:42:11.561Z,11.93
2019-05-22T22:44:40.775Z,10.73
2019-05-22T22:47:14.894Z,10.80
2019-05-22T22:49:44.008Z,9.50
2019-05-22T22:52:13.905Z,10.40
2019-05-22T22:54:41.957Z,10.50
2019-05-22T22:57:11.621Z,9.90
2019-05-22T22:59:39.634Z,10.17
2019-05-22T23:02:09.364Z,10.33
2019-05-22T23:04:37.229Z,10.10
2019-05-22T23:07:07.516Z,11.87
2019-05-22T23:09:36.883Z,10.73
2019-05-22T23:12:06.417Z,10.70
2019-05-22T23:14:35.555Z,10.27
2019-05-22T23:17:05.202Z,11.20
2019-05-22T23:19:33.498Z,9.87
2019-05-22T23:22:01.360Z,10.10
2019-05-22T23:24:29.622Z,10.10
2019-05-22T23:26:59.512Z,10.57
2019-05-22T23:29:28.136Z,9.07
2019-05-22T23:31:56.144Z,10.40
2019-05-22T23:34:24.090Z,10.13
2019-05-22T23:36:52.281Z,10.23
2019-05-22T23:39:20.216Z,10.97
2019-05-22T23:41:48.592Z,10.00
2019-05-22T23:44:19.316Z,10.10
2019-05-22T23:46:47.533Z,10.33
2019-05-22T23:49:15.501Z,10.77
2019-05-22T23:51:44.583Z,10.13
2019-05-22T23:54:13.107Z,11.40
2019-05-22T23:56:41.597Z,9.60
2019-05-22T23:59:10.420Z,10.33
